KASL/ASL METAR and TAF weather

Enter ICAO airport designator
Station Type Date Time Source
KASL METAR 2020/04/05 05:15 UTC NOAA

KASL 050515Z AUTO 00000KT 7SM BKN003 OVC008 12/11 A3004 RMK AO1 T01150105


Station Type Date Time Source
KASL Decoded METAR 2020/04/05 05:15 UTC NOAA

Station name not available
Apr 05, 2020 - 01:15 AM EDT / 2020.04.05 0515 UTC
Wind: Calm:0
Visibility: 7 mile(s):0
Sky conditions: overcast
Temperature: 52.7 F (11.5 C)
Dew Point: 50.9 F (10.5 C)
Relative Humidity: 93%
Pressure (altimeter): 30.04 in. Hg (1017 hPa)
ob: KASL 050515Z AUTO 00000KT 7SM BKN003 OVC008 12/11 A3004 RMK AO1 T01150105
cycle: 5

Station Type Date Time Source
KASL TAF UTC NOAA

Error!

Example: see airport list